Terminal Aerodrome Forecast
Issued by NWS Wilmington, NC

Home | Current Version | Previous Version | Text Only | Print | Product List | Glossary On
Versions: 1 2 3 4 5 6 7 8 9 10 11 12
727
FTUS42 KILM 292323
TAFFLO
TAF
KFLO 292323Z 3000/3024 20009KT P6SM SCT250
     FM300600 17005KT P6SM BKN015
      TEMPO 3006/3010 SCT015
     FM301300 18006KT P6SM BKN025
     FM301600 19010G19KT P6SM SCT040
     FM302200 17011G21KT P6SM SCT250=

USA.gov is the U.S. government's official web portal to all federal, state and local government web resources and services.